createdAt,value
2019-03-17T00:00:02.480Z,9.39
2019-03-17T00:05:05.807Z,9.27
2019-03-17T00:10:06.495Z,9.3
2019-03-17T00:15:05.427Z,9.25
2019-03-17T00:20:05.494Z,9.17
2019-03-17T00:25:09.404Z,9.11
2019-03-17T00:30:02.521Z,9.23
2019-03-17T00:35:04.117Z,9.31
2019-03-17T00:40:04.402Z,9.26
2019-03-17T00:45:02.791Z,9.23
2019-03-17T00:50:04.588Z,9.2
2019-03-17T00:55:05.059Z,9.3
2019-03-17T01:00:02.832Z,9.22
2019-03-17T01:05:04.518Z,9.22
2019-03-17T01:10:05.793Z,9.2
2019-03-17T01:15:03.317Z,9.24
2019-03-17T01:20:03.845Z,9.25
2019-03-17T01:25:05.576Z,9.32
2019-03-17T01:30:02.652Z,9.29
2019-03-17T01:35:08.840Z,9.27
2019-03-17T01:40:04.267Z,9.26
2019-03-17T01:45:02.724Z,9.2
2019-03-17T01:50:03.620Z,9.14
2019-03-17T01:55:03.523Z,9.14
2019-03-17T02:00:03.860Z,9.15
2019-03-17T02:05:05.362Z,9.21
2019-03-17T02:10:10.827Z,9.24
2019-03-17T02:15:03.669Z,9.36
2019-03-17T02:20:05.314Z,9.29
2019-03-17T02:25:03.396Z,9.26
2019-03-17T02:30:03.997Z,9.11
2019-03-17T02:35:04.128Z,9.08
2019-03-17T02:40:05.107Z,8.95
2019-03-17T02:45:01.813Z,8.91
2019-03-17T02:50:04.032Z,8.8
2019-03-17T02:55:04.697Z,8.77
2019-03-17T03:00:02.376Z,8.66
2019-03-17T03:05:04.444Z,8.71
2019-03-17T03:10:04.221Z,8.78
2019-03-17T03:15:02.080Z,8.8
2019-03-17T03:20:06.825Z,8.88
2019-03-17T03:25:05.493Z,8.89
2019-03-17T03:30:07.229Z,8.95
2019-03-17T03:35:06.619Z,9.02
2019-03-17T03:40:05.407Z,8.95
2019-03-17T03:45:05.522Z,9
2019-03-17T03:50:05.599Z,8.9
2019-03-17T03:55:03.737Z,8.82
2019-03-17T04:00:04.316Z,8.79
2019-03-17T04:05:05.336Z,8.86
2019-03-17T04:10:04.197Z,8.85
2019-03-17T04:15:04.046Z,8.78
2019-03-17T04:20:05.581Z,8.73
2019-03-17T04:25:05.105Z,8.73
2019-03-17T04:30:02.659Z,8.77
2019-03-17T04:35:04.605Z,8.79
2019-03-17T04:40:04.747Z,8.78
2019-03-17T04:45:03.262Z,8.76
2019-03-17T04:50:04.648Z,8.9
2019-03-17T04:55:04.127Z,8.94
2019-03-17T05:00:02.429Z,8.95
2019-03-17T05:05:04.445Z,8.95
2019-03-17T05:10:02.903Z,8.95
2019-03-17T05:15:04.964Z,8.94
2019-03-17T05:20:04.226Z,8.97
2019-03-17T05:25:04.982Z,8.97
2019-03-17T05:30:02.006Z,8.93
2019-03-17T05:35:05.128Z,8.92
2019-03-17T05:40:03.951Z,8.95
2019-03-17T05:45:02.405Z,8.95
2019-03-17T05:50:04.549Z,9
2019-03-17T05:55:04.749Z,9.01
2019-03-17T06:00:02.308Z,9.01
2019-03-17T06:05:03.569Z,8.95
2019-03-17T06:10:01.894Z,8.9
2019-03-17T06:15:04.675Z,8.93
2019-03-17T06:20:05.329Z,8.93
2019-03-17T06:25:05.001Z,8.85
2019-03-17T06:30:01.909Z,8.81
2019-03-17T06:35:03.078Z,8.78
2019-03-17T06:40:03.253Z,8.81
2019-03-17T06:45:01.891Z,8.78
2019-03-17T06:50:03.096Z,8.81
2019-03-17T06:55:02.897Z,8.83
2019-03-17T07:00:02.025Z,8.87
2019-03-17T07:05:03.207Z,8.92
2019-03-17T07:10:03.099Z,8.91
2019-03-17T07:15:03.313Z,8.82
2019-03-17T07:20:04.906Z,8.76
2019-03-17T07:25:05.158Z,8.7
2019-03-17T07:30:02.545Z,8.71
2019-03-17T07:35:04.624Z,8.7
2019-03-17T07:40:05.509Z,8.68
2019-03-17T07:45:02.707Z,8.65
2019-03-17T07:50:04.814Z,8.64
2019-03-17T07:55:05.750Z,8.7
2019-03-17T08:00:03.365Z,8.72
2019-03-17T08:05:05.550Z,8.77
2019-03-17T08:10:05.626Z,8.74
2019-03-17T08:15:04.047Z,8.68
2019-03-17T08:20:05.315Z,7.03
2019-03-17T08:25:04.894Z,6.2
2019-03-17T08:30:03.150Z,6.05
2019-03-17T08:35:05.222Z,5.98
2019-03-17T08:40:04.306Z,5.87
2019-03-17T08:45:02.721Z,5.94
2019-03-17T08:50:05.180Z,5.96
2019-03-17T08:55:04.467Z,5.92
2019-03-17T09:00:02.838Z,5.89
2019-03-17T09:05:03.587Z,5.99
2019-03-17T09:10:03.884Z,6
2019-03-17T09:15:03.092Z,6.08
2019-03-17T09:20:04.099Z,6.26
2019-03-17T09:25:06.413Z,6.41
2019-03-17T09:30:03.171Z,6.78
2019-03-17T09:35:04.165Z,7.05
2019-03-17T09:40:05.982Z,7.07
2019-03-17T09:45:03.282Z,7.17
2019-03-17T09:50:04.321Z,7.25
2019-03-17T09:55:05.119Z,7.33
2019-03-17T10:00:02.539Z,7.43
2019-03-17T10:05:06.111Z,7.63
2019-03-17T10:10:04.058Z,7.73
2019-03-17T10:15:02.532Z,7.85
2019-03-17T10:20:05.707Z,7.99
2019-03-17T10:25:05.514Z,8.44
2019-03-17T10:30:02.485Z,8.91
2019-03-17T10:35:04.124Z,9.06
2019-03-17T10:40:04.259Z,8.8
2019-03-17T10:45:02.739Z,8.71
2019-03-17T10:50:05.068Z,8.64
2019-03-17T10:55:03.611Z,8.63
2019-03-17T11:00:03.127Z,8.49
2019-03-17T11:05:04.122Z,8.35
2019-03-17T11:10:04.484Z,8.02
2019-03-17T11:15:02.049Z,8.05
2019-03-17T11:20:04.207Z,8.22
2019-03-17T11:25:04.686Z,8.59
2019-03-17T11:30:02.334Z,8.86
2019-03-17T11:35:03.915Z,8.95
2019-03-17T11:40:04.119Z,9.36
2019-03-17T11:45:02.669Z,9.57
2019-03-17T11:50:04.247Z,9.86
2019-03-17T11:55:04.655Z,10.37
2019-03-17T12:00:02.203Z,10.66
2019-03-17T12:05:04.782Z,10.81
2019-03-17T12:10:05.537Z,10.71
2019-03-17T12:15:02.247Z,10.58
2019-03-17T12:20:03.895Z,10.74
2019-03-17T12:25:06.113Z,10.62
2019-03-17T12:30:02.585Z,10.7
2019-03-17T12:35:03.487Z,10.99
2019-03-17T12:40:03.407Z,10.38
2019-03-17T12:45:02.070Z,9.78
2019-03-17T12:50:03.809Z,10.08
2019-03-17T12:55:03.290Z,10.27
2019-03-17T13:00:02.232Z,10.74
2019-03-17T13:05:03.379Z,10.69
2019-03-17T13:10:14.390Z,10.77
2019-03-17T13:15:02.181Z,10.33
2019-03-17T13:20:03.245Z,10.06
2019-03-17T13:25:03.277Z,9.98
2019-03-17T13:30:02.623Z,10.22
2019-03-17T13:35:03.131Z,9.89
2019-03-17T13:40:05.055Z,10.21
2019-03-17T13:45:02.910Z,10.25
2019-03-17T13:50:04.664Z,10.53
2019-03-17T13:55:04.016Z,10.35
2019-03-17T14:00:02.711Z,10.1
2019-03-17T14:05:06.766Z,9.88
2019-03-17T14:10:12.872Z,9.4
2019-03-17T14:15:03.003Z,8.52
2019-03-17T14:20:03.385Z,8.26
2019-03-17T14:25:05.142Z,8.18
2019-03-17T14:30:03.286Z,8.18
2019-03-17T14:35:04.125Z,8.15
2019-03-17T14:40:04.300Z,8.04
2019-03-17T14:45:02.493Z,8.15
2019-03-17T14:50:04.396Z,8.21
2019-03-17T14:55:04.112Z,8.36
2019-03-17T15:00:03.206Z,8.32
2019-03-17T15:05:04.908Z,8.36
2019-03-17T15:10:05.872Z,8.32
2019-03-17T15:15:02.966Z,8.28
2019-03-17T15:20:03.985Z,8.22
2019-03-17T15:25:06.230Z,7.07
2019-03-17T15:30:02.610Z,6.54
2019-03-17T15:35:04.754Z,5.96
2019-03-17T15:40:05.595Z,5.65
2019-03-17T15:45:04.030Z,5.4
2019-03-17T15:50:05.792Z,5.27
2019-03-17T15:55:04.901Z,5.23
2019-03-17T16:00:03.160Z,5.25
2019-03-17T16:05:06.185Z,5.26
2019-03-17T16:10:04.290Z,5.26
2019-03-17T16:15:02.682Z,5.33
2019-03-17T16:20:05.017Z,5.39
2019-03-17T16:25:04.732Z,5.43
2019-03-17T16:30:03.081Z,5.5
2019-03-17T16:35:04.544Z,5.53
2019-03-17T16:40:04.116Z,5.56
2019-03-17T16:45:02.677Z,5.61
2019-03-17T16:50:04.962Z,5.69
2019-03-17T16:55:04.970Z,5.62
2019-03-17T17:00:02.646Z,5.52
2019-03-17T17:05:05.751Z,5.22
2019-03-17T17:10:04.192Z,5.06
2019-03-17T17:15:02.964Z,5.01
2019-03-17T17:20:03.651Z,4.94
2019-03-17T17:25:04.469Z,4.9
2019-03-17T17:30:02.090Z,4.9
2019-03-17T17:35:04.178Z,4.81
2019-03-17T17:40:04.396Z,4.86
2019-03-17T17:45:01.998Z,4.87
2019-03-17T17:50:04.082Z,4.72
2019-03-17T17:55:04.285Z,4.63
2019-03-17T18:00:01.847Z,4.47
2019-03-17T18:05:04.580Z,4.32
2019-03-17T18:10:03.982Z,4.19
2019-03-17T18:15:02.513Z,4.15
2019-03-17T18:20:03.500Z,4.1
2019-03-17T18:25:05.012Z,4.15
2019-03-17T18:30:02.606Z,4.21
2019-03-17T18:35:03.987Z,4.19
2019-03-17T18:40:04.222Z,4.24
2019-03-17T18:45:01.748Z,4.13
2019-03-17T18:50:04.229Z,3.86
2019-03-17T18:55:05.313Z,3.67
2019-03-17T19:00:04.314Z,3.5
2019-03-17T19:05:05.213Z,3.34
2019-03-17T19:10:05.941Z,3.28
2019-03-17T19:15:02.438Z,3.21
2019-03-17T19:20:05.643Z,3.19
2019-03-17T19:25:05.347Z,3.13
2019-03-17T19:30:02.176Z,3.05
2019-03-17T19:35:05.029Z,2.96
2019-03-17T19:40:04.279Z,2.86
2019-03-17T19:45:02.073Z,2.84
2019-03-17T19:50:03.263Z,2.81
2019-03-17T19:55:02.748Z,2.83
2019-03-17T20:00:02.212Z,2.91
2019-03-17T20:05:03.850Z,2.91
2019-03-17T20:10:02.595Z,2.88
2019-03-17T20:15:02.569Z,2.86
2019-03-17T20:20:02.787Z,2.75
2019-03-17T20:25:03.560Z,2.76
2019-03-17T20:30:01.867Z,2.79
2019-03-17T20:35:03.617Z,2.75
2019-03-17T20:40:07.563Z,2.79
2019-03-17T20:45:04.118Z,2.72
2019-03-17T20:50:06.051Z,2.73
2019-03-17T20:55:07.492Z,2.74
2019-03-17T21:00:08.623Z,2.78
2019-03-17T21:05:07.157Z,2.69
2019-03-17T21:10:07.609Z,2.64
2019-03-17T21:15:07.168Z,2.57
2019-03-17T21:20:06.351Z,2.57
2019-03-17T21:25:06.595Z,2.58
2019-03-17T21:30:06.542Z,2.6
2019-03-17T21:35:08.238Z,2.64
2019-03-17T21:40:05.498Z,2.68
2019-03-17T21:45:08.412Z,2.75
2019-03-17T21:50:09.100Z,2.83
2019-03-17T21:55:06.316Z,2.94
2019-03-17T22:00:07.101Z,3
2019-03-17T22:05:06.790Z,2.99
2019-03-17T22:10:03.203Z,3
2019-03-17T22:15:04.539Z,3.01
2019-03-17T22:20:05.031Z,2.95
2019-03-17T22:25:04.827Z,2.89
2019-03-17T22:30:04.534Z,3.02
2019-03-17T22:35:04.993Z,3.09
2019-03-17T22:40:04.935Z,3.14
2019-03-17T22:45:04.982Z,3.1
2019-03-17T22:50:06.114Z,3.02
2019-03-17T22:55:09.248Z,2.94
2019-03-17T23:00:07.867Z,2.89
2019-03-17T23:05:10.302Z,2.87
2019-03-17T23:10:07.747Z,2.96
2019-03-17T23:15:08.203Z,3.01
2019-03-17T23:20:09.702Z,3.02
2019-03-17T23:25:08.328Z,2.99
2019-03-17T23:30:08.515Z,2.95
2019-03-17T23:35:08.364Z,2.94
2019-03-17T23:40:09.606Z,2.87
2019-03-17T23:45:08.433Z,2.81
2019-03-17T23:50:09.387Z,2.75
2019-03-17T23:55:08.617Z,2.72
